Time;durP1;ratioP1;P1;durP2;ratioP2;P2;SDS_P1;SDS_P2;PMS_P1;PMS_P2;Temp;Humidity;BMP_temperature;BMP_pressure;BME280_temperature;BME280_humidity;BME280_pressure;Samples;Min_cycle;Max_cycle;Signal;HPM_P1;HPM_P2
2022/11/08 00:01:44;;;;;;;19.30;4.22;;;;;;;10.84;100.00;100806.06;5046258;28;20120;-68
2022/11/08 00:04:12;;;;;;;16.23;3.88;;;;;;;10.75;100.00;100805.13;5044261;28;20092;-69
2022/11/08 00:14:52;;;;;;;18.92;4.05;;;;;;;10.45;100.00;100814.72;5039904;28;20045;-67
2022/11/08 00:17:18;;;;;;;16.20;4.18;;;;;;;10.39;100.00;100809.41;5046371;28;20017;-67
2022/11/08 00:19:44;;;;;;;18.88;4.22;;;;;;;10.35;100.00;100796.16;5044029;28;20400;-67
2022/11/08 00:22:13;;;;;;;20.98;4.40;;;;;;;10.32;100.00;100801.41;5045384;28;20036;-67
2022/11/08 00:24:38;;;;;;;19.13;4.30;;;;;;;10.29;100.00;100797.91;5044269;28;20029;-67
2022/11/08 00:27:06;;;;;;;19.63;4.30;;;;;;;10.28;100.00;100800.50;5044677;28;20025;-67
2022/11/08 00:29:35;;;;;;;19.98;4.50;;;;;;;10.25;100.00;100795.19;5045041;28;20052;-67
2022/11/08 00:32:07;;;;;;;20.92;4.70;;;;;;;10.20;100.00;100797.81;5043881;28;20369;-67
2022/11/08 00:34:33;;;;;;;17.87;4.00;;;;;;;10.19;100.00;100795.19;5045139;28;20104;-66
2022/11/08 00:36:58;;;;;;;20.58;4.45;;;;;;;10.17;100.00;100799.59;5043369;28;20284;-67
2022/11/08 00:39:24;;;;;;;20.40;4.30;;;;;;;10.20;100.00;100792.53;5046294;28;20029;-67
2022/11/08 00:41:49;;;;;;;17.83;4.30;;;;;;;10.15;100.00;100790.75;5042911;28;20022;-67
2022/11/08 00:44:15;;;;;;;16.77;4.15;;;;;;;10.11;100.00;100788.09;5045951;28;20033;-67
2022/11/08 00:46:40;;;;;;;19.05;4.20;;;;;;;10.08;100.00;100781.94;5043582;28;20017;-67
2022/11/08 00:49:07;;;;;;;18.17;4.10;;;;;;;10.04;100.00;100778.38;5044318;28;20021;-67
2022/11/08 00:51:32;;;;;;;17.95;4.40;;;;;;;10.04;100.00;100781.00;5044673;28;20025;-67
2022/11/08 00:53:58;;;;;;;20.15;4.50;;;;;;;10.06;100.00;100779.28;5043037;28;20025;-67
2022/11/08 00:56:23;;;;;;;17.83;4.10;;;;;;;10.04;100.00;100772.22;5046064;28;20029;-67
2022/11/08 00:58:49;;;;;;;19.00;4.00;;;;;;;10.01;100.00;100775.72;5042445;28;20021;-67
2022/11/08 01:01:17;;;;;;;18.05;4.25;;;;;;;10.04;100.00;100775.72;5045171;28;20469;-66
2022/11/08 01:03:43;;;;;;;18.63;4.30;;;;;;;10.02;100.00;100768.66;5043163;28;20037;-67
2022/11/08 01:06:10;;;;;;;19.35;4.30;;;;;;;10.01;100.00;100765.16;5044255;28;20026;-67
2022/11/08 01:08:36;;;;;;;19.23;4.13;;;;;;;10.00;100.00;100763.38;5043951;28;20540;-67
2022/11/08 01:11:05;;;;;;;18.80;4.20;;;;;;;9.96;100.00;100766.91;5043352;28;20135;-67
2022/11/08 01:13:31;;;;;;;17.63;4.55;;;;;;;9.94;100.00;100764.22;5044413;28;20266;-67
2022/11/08 01:15:57;;;;;;;18.98;4.22;;;;;;;9.97;100.00;100771.28;5042595;28;20044;-67
2022/11/08 01:18:22;;;;;;;19.23;4.40;;;;;;;9.99;100.00;100766.91;5045506;28;20464;-67
2022/11/08 01:20:48;;;;;;;18.85;4.25;;;;;;;9.96;100.00;100766.91;5042255;28;20496;-67
2022/11/08 01:23:16;;;;;;;20.00;4.18;;;;;;;9.98;100.00;100762.50;5044618;28;20126;-67
2022/11/08 01:25:43;;;;;;;17.48;4.32;;;;;;;9.94;100.00;100768.63;5043069;28;20148;-67
2022/11/08 01:28:11;;;;;;;20.00;4.60;;;;;;;9.90;100.00;100762.47;5043833;28;20021;-67
2022/11/08 01:30:42;;;;;;;17.90;4.25;;;;;;;9.91;100.00;100760.69;5043327;28;20036;-68
2022/11/08 01:33:08;;;;;;;19.33;4.65;;;;;;;9.90;100.00;100761.56;5043560;28;20377;-67
2022/11/08 01:35:34;;;;;;;19.30;4.82;;;;;;;9.85;100.00;100752.75;5043803;28;20025;-68
2022/11/08 01:38:00;;;;;;;17.98;4.55;;;;;;;9.86;100.00;100751.84;5042387;28;20033;-68
2022/11/08 01:40:27;;;;;;;18.45;5.05;;;;;;;9.83;100.00;100749.19;5044938;28;20618;-67
2022/11/08 01:42:53;;;;;;;18.27;4.80;;;;;;;9.81;100.00;100748.31;5041547;28;20157;-67
2022/11/08 01:45:56;;;;;;;21.10;5.28;;;;;;;9.79;100.00;100742.16;5044857;28;20449;-68
2022/11/08 01:48:23;;;;;;;19.33;5.07;;;;;;;9.82;100.00;100736.91;5037742;28;20037;-67
2022/11/08 01:50:50;;;;;;;18.40;5.07;;;;;;;9.79;100.00;100728.97;5044660;28;20495;-67
2022/11/08 01:53:15;;;;;;;19.15;5.30;;;;;;;9.76;100.00;100717.50;5042364;28;20026;-68
2022/11/08 01:55:41;;;;;;;21.05;5.47;;;;;;;9.77;100.00;100715.72;5043592;28;20495;-68
2022/11/08 01:58:13;;;;;;;20.58;5.10;;;;;;;9.75;100.00;100718.34;5043131;28;20029;-67
2022/11/08 02:00:39;;;;;;;;;;;;;;;9.70;100.00;100711.31;5043961;28;20030;-67
2022/11/08 02:03:09;;;;;;;17.98;4.75;;;;;;;9.74;100.00;100707.78;5043422;28;20429;-68
2022/11/08 02:05:34;;;;;;;19.00;4.70;;;;;;;9.75;100.00;100704.28;5042580;28;20029;-67
2022/11/08 02:08:14;;;;;;;17.05;4.38;;;;;;;9.71;100.00;100702.50;5044290;28;20034;-68
2022/11/08 02:10:42;;;;;;;18.33;4.60;;;;;;;9.74;100.00;100713.06;5043388;28;20404;-68
2022/11/08 02:13:12;;;;;;;17.65;4.40;;;;;;;9.76;100.00;100692.84;5042493;28;20533;-67
2022/11/08 02:15:38;;;;;;;18.45;4.55;;;;;;;9.74;100.00;100691.94;5041779;28;20133;-67
2022/11/08 02:18:03;;;;;;;16.17;4.10;;;;;;;9.79;100.00;100692.00;5043317;28;20104;-67
2022/11/08 02:20:30;;;;;;;19.63;4.55;;;;;;;9.80;100.00;100705.22;5041568;28;20030;-67
2022/11/08 02:23:22;;;;;;;19.20;4.65;;;;;;;9.79;100.00;100689.34;5044493;28;20025;-67
2022/11/08 02:25:48;;;;;;;18.17;4.20;;;;;;;9.75;100.00;100686.69;5043681;28;20068;-67
2022/11/08 02:28:13;;;;;;;19.30;4.45;;;;;;;9.71;100.00;100684.03;5041921;28;20052;-68
2022/11/08 02:30:38;;;;;;;17.55;4.22;;;;;;;9.65;100.00;100671.66;5042906;28;20064;-67
2022/11/08 02:33:18;;;;;;;18.98;4.10;;;;;;;9.65;100.00;100676.94;5042930;28;20075;-67
2022/11/08 02:35:47;;;;;;;19.05;4.88;;;;;;;9.67;100.00;100664.66;5043378;28;20028;-67
2022/11/08 02:38:12;;;;;;;17.55;4.20;;;;;;;9.64;100.00;100658.47;5042008;28;20028;-67
2022/11/08 02:40:48;;;;;;;16.40;4.35;;;;;;;9.63;100.00;100665.50;5042732;28;20033;-67
2022/11/08 02:43:13;;;;;;;18.30;4.35;;;;;;;9.64;100.00;100658.47;5041547;28;20480;-67
2022/11/08 02:45:39;;;;;;;16.80;4.13;;;;;;;9.63;100.00;100649.69;5042702;28;20026;-67
2022/11/08 02:48:05;;;;;;;19.27;4.35;;;;;;;9.69;100.00;100652.34;5042741;28;20025;-67
2022/11/08 02:50:30;;;;;;;15.23;4.00;;;;;;;9.69;100.00;100643.53;5041462;28;20492;-67
2022/11/08 02:52:55;;;;;;;17.17;4.28;;;;;;;9.67;100.00;100643.53;5043876;28;20037;-68
2022/11/08 02:55:21;;;;;;;17.42;4.10;;;;;;;9.69;100.00;100633.84;5040902;28;20022;-67
2022/11/08 02:57:46;;;;;;;17.77;4.03;;;;;;;9.67;100.00;100629.44;5043564;28;20067;-67
2022/11/08 03:00:12;;;;;;;16.15;3.90;;;;;;;9.64;100.00;100627.69;5041781;28;20047;-67
2022/11/08 03:02:37;;;;;;;16.40;3.90;;;;;;;9.63;100.00;100615.38;5042253;28;20030;-67
2022/11/08 03:05:03;;;;;;;18.80;4.22;;;;;;;9.65;100.00;100621.53;5042765;28;20025;-67
2022/11/08 03:07:28;;;;;;;14.80;3.85;;;;;;;9.66;100.00;100615.38;5041069;28;20438;-68
2022/11/08 03:09:53;;;;;;;17.85;4.05;;;;;;;9.64;100.00;100614.50;5043844;28;20032;-68
2022/11/08 03:12:19;;;;;;;14.07;3.78;;;;;;;9.62;100.00;100600.41;5040162;28;20449;-68
2022/11/08 03:14:44;;;;;;;16.48;4.00;;;;;;;9.57;100.00;100605.66;5043238;28;20111;-68
2022/11/08 03:17:09;;;;;;;18.67;4.05;;;;;;;9.54;100.00;100595.09;5040756;28;20041;-68
2022/11/08 03:19:35;;;;;;;15.88;3.80;;;;;;;9.53;100.00;100600.38;5041651;28;20030;-67
2022/11/08 03:22:00;;;;;;;17.33;4.15;;;;;;;9.54;100.00;100587.19;5043588;28;20473;-68
2022/11/08 03:24:25;;;;;;;16.05;3.80;;;;;;;9.54;100.00;100596.88;5040484;28;20029;-68
2022/11/08 03:26:51;;;;;;;17.48;4.60;;;;;;;9.52;100.00;100598.59;5042986;28;20055;-68
2022/11/08 03:29:16;;;;;;;16.52;4.20;;;;;;;9.52;100.00;100588.03;5040715;28;20025;-68
2022/11/08 03:31:41;;;;;;;18.33;4.05;;;;;;;9.49;100.00;100583.63;5042422;28;20112;-68
2022/11/08 03:34:09;;;;;;;18.50;4.20;;;;;;;9.44;100.00;100588.00;5042244;28;20025;-68
2022/11/08 03:36:34;;;;;;;17.95;4.50;;;;;;;9.42;100.00;100573.91;5041465;28;20025;-68
2022/11/08 03:38:59;;;;;;;18.60;4.30;;;;;;;9.44;100.00;100566.91;5045609;28;20083;-68
2022/11/08 03:41:25;;;;;;;20.08;4.07;;;;;;;9.41;100.00;100565.13;5044099;28;20104;-68
2022/11/08 03:43:50;;;;;;;16.92;4.30;;;;;;;9.41;100.00;100559.84;5039741;28;20122;-69
2022/11/08 03:46:15;;;;;;;18.08;4.50;;;;;;;9.36;100.00;100547.50;5046533;28;20021;-68
2022/11/08 03:48:41;;;;;;;19.25;4.32;;;;;;;9.36;100.00;100529.94;5045459;28;20029;-68
2022/11/08 03:51:06;;;;;;;18.50;4.47;;;;;;;9.37;100.00;100539.59;5043905;28;20041;-68
2022/11/08 03:53:31;;;;;;;18.13;4.28;;;;;;;9.42;100.00;100536.97;5046481;28;20032;-68
2022/11/08 03:56:00;;;;;;;20.08;4.40;;;;;;;9.43;100.00;100536.09;5043829;28;20025;-69
2022/11/08 03:58:26;;;;;;;19.05;4.63;;;;;;;9.40;100.00;100534.31;5047010;28;20025;-69
2022/11/08 04:00:51;;;;;;;20.50;4.88;;;;;;;9.42;100.00;100524.69;5043716;28;20032;-68
2022/11/08 04:03:16;;;;;;;20.17;5.15;;;;;;;9.42;100.00;100527.31;5046490;28;20079;-68
2022/11/08 04:05:42;;;;;;;21.45;5.20;;;;;;;9.47;100.00;100523.81;5044520;28;20071;-68
2022/11/08 04:08:07;;;;;;;19.85;4.80;;;;;;;9.43;100.00;100520.28;5045062;28;20033;-66
2022/11/08 04:10:33;;;;;;;19.30;4.60;;;;;;;9.37;100.00;100515.84;5045546;28;20032;-66
2022/11/08 04:15:44;;;;;;;19.70;4.50;;;;;;;9.40;100.00;100501.81;5044183;28;20523;-66
2022/11/08 04:23:38;;;;;;;19.42;4.50;;;;;;;9.37;100.00;100497.38;5043459;28;20079;-67
2022/11/08 04:26:06;;;;;;;17.88;4.53;;;;;;;9.38;100.00;100496.53;5045382;28;20029;-67
2022/11/08 04:28:33;;;;;;;18.58;4.43;;;;;;;9.38;100.00;100485.09;5043724;28;20472;-67
2022/11/08 04:31:02;;;;;;;20.95;4.53;;;;;;;9.39;100.00;100498.28;5046005;28;20035;-66
2022/11/08 04:33:27;;;;;;;18.42;4.13;;;;;;;9.39;100.00;100485.09;5043313;28;20075;-67
2022/11/08 04:35:53;;;;;;;20.92;4.80;;;;;;;9.40;100.00;100481.56;5046146;28;20554;-68
2022/11/08 04:38:19;;;;;;;18.83;4.43;;;;;;;9.42;100.00;100477.19;5043324;28;20102;-68
2022/11/08 04:40:44;;;;;;;19.42;4.60;;;;;;;9.41;100.00;100467.50;5045140;28;20029;-67
2022/11/08 04:43:10;;;;;;;16.50;4.10;;;;;;;9.44;100.00;100466.66;5044136;28;20109;-67
2022/11/08 04:45:35;;;;;;;15.48;3.70;;;;;;;9.41;100.00;100475.41;5044208;28;20030;-68
2022/11/08 04:48:01;;;;;;;17.45;4.10;;;;;;;9.38;100.00;100466.63;5045195;28;20040;-67
2022/11/08 04:50:26;;;;;;;16.35;3.90;;;;;;;9.35;100.00;100461.31;5042510;28;20029;-67
2022/11/08 04:52:53;;;;;;;16.98;4.07;;;;;;;9.30;100.00;100452.53;5046340;28;20025;-67
2022/11/08 04:55:19;;;;;;;17.13;4.00;;;;;;;9.33;100.00;100440.22;5042767;28;20030;-68
2022/11/08 04:57:45;;;;;;;17.27;3.83;;;;;;;9.26;100.00;100446.34;5045146;28;20025;-67
2022/11/08 05:00:11;;;;;;;16.67;4.00;;;;;;;9.22;100.00;100444.59;5043984;28;20035;-67
2022/11/08 05:02:36;;;;;;;16.55;3.75;;;;;;;9.18;100.00;100442.81;5043709;28;20037;-67
2022/11/08 05:05:01;;;;;;;17.33;3.92;;;;;;;9.19;100.00;100444.59;5044787;28;20113;-67
2022/11/08 05:07:30;;;;;;;17.08;4.10;;;;;;;9.16;100.00;100444.53;5042411;28;20117;-68
2022/11/08 05:09:55;;;;;;;17.05;4.00;;;;;;;9.14;100.00;100441.03;5045643;28;20047;-68
2022/11/08 05:12:20;;;;;;;16.10;3.80;;;;;;;9.11;100.00;100430.47;5041957;28;20049;-67
2022/11/08 05:14:46;;;;;;;18.63;3.80;;;;;;;9.14;100.00;100430.50;5045014;28;20099;-67
2022/11/08 05:17:11;;;;;;;16.70;3.70;;;;;;;9.18;100.00;100427.88;5043383;28;20175;-68
2022/11/08 05:25:05;;;;;;;12.75;3.40;;;;;;;9.17;100.00;100435.78;5040957;28;20044;-67
2022/11/08 05:27:30;;;;;;;13.40;3.50;;;;;;;9.18;100.00;100427.00;5044632;28;20029;-68
2022/11/08 05:29:55;;;;;;;13.20;3.47;;;;;;;9.15;100.00;100416.44;5041934;28;20028;-67
2022/11/08 05:32:21;;;;;;;13.80;3.42;;;;;;;9.19;100.00;100419.09;5045106;28;20476;-67
2022/11/08 05:34:46;;;;;;;15.77;3.63;;;;;;;9.15;100.00;100411.16;5042689;28;20037;-67
2022/11/08 05:37:11;;;;;;;16.10;3.60;;;;;;;9.06;100.00;100410.25;5043839;28;20041;-67
2022/11/08 05:39:36;;;;;;;14.45;3.40;;;;;;;9.06;100.00;100404.97;5043841;28;20353;-67
2022/11/08 05:42:03;;;;;;;16.02;3.60;;;;;;;9.04;100.00;100413.75;5042563;28;20026;-67
2022/11/08 05:44:29;;;;;;;13.63;3.63;;;;;;;9.04;100.00;100409.38;5044922;28;20100;-67
2022/11/08 05:46:54;;;;;;;14.02;3.40;;;;;;;9.03;100.00;100409.38;5041681;28;20115;-68
2022/11/08 05:49:19;;;;;;;14.05;3.35;;;;;;;9.00;100.00;100415.50;5044449;28;20104;-67
2022/11/08 05:51:45;;;;;;;14.07;3.63;;;;;;;9.02;100.00;100407.59;5042443;28;20033;-67
2022/11/08 05:54:11;;;;;;;14.25;3.40;;;;;;;9.06;100.00;100410.25;5043566;28;20017;-67
2022/11/08 05:56:37;;;;;;;16.88;3.50;;;;;;;9.04;100.00;100412.00;5043656;28;20053;-67
2022/11/08 05:59:03;;;;;;;15.05;3.50;;;;;;;9.03;100.00;100401.47;5042275;28;20065;-67
2022/11/08 06:01:28;;;;;;;14.75;3.60;;;;;;;9.00;100.00;100399.69;5044039;28;20032;-67
2022/11/08 06:03:54;;;;;;;13.82;3.50;;;;;;;8.96;100.00;100400.53;5041437;28;20026;-67
2022/11/08 06:06:21;;;;;;;14.38;3.65;;;;;;;8.93;100.00;100395.25;5044315;28;20025;-67
2022/11/08 06:08:47;;;;;;;14.50;3.85;;;;;;;8.91;100.00;100402.25;5042107;28;20053;-67
2022/11/08 06:11:16;;;;;;;16.10;3.70;;;;;;;8.90;100.00;100393.47;5043158;28;20092;-67
2022/11/08 06:13:42;;;;;;;14.82;3.83;;;;;;;8.87;100.00;100396.09;5042691;28;20123;-67
2022/11/08 06:16:12;;;;;;;13.30;3.50;;;;;;;8.93;100.00;100397.00;5042361;28;20472;-67
2022/11/08 06:18:38;;;;;;;18.50;3.80;;;;;;;8.92;100.00;100398.75;5042692;28;20448;-68
2022/11/08 06:21:06;;;;;;;12.32;3.70;;;;;;;8.91;100.00;100402.25;5042020;28;20071;-68
2022/11/08 06:23:32;;;;;;;15.40;3.80;;;;;;;8.86;100.00;100393.47;5043911;28;20040;-67
2022/11/08 06:25:58;;;;;;;16.42;4.07;;;;;;;8.89;100.00;100404.03;5040880;28;20034;-68
2022/11/08 06:28:24;;;;;;;17.10;4.00;;;;;;;8.83;100.00;100404.00;5044781;28;20033;-68
2022/11/08 06:30:50;;;;;;;16.15;4.00;;;;;;;8.81;100.00;100398.72;5041080;28;20022;-67
2022/11/08 06:33:15;;;;;;;16.65;3.80;;;;;;;8.81;100.00;100400.47;5040446;28;20017;-65
2022/11/08 06:35:41;;;;;;;16.80;3.83;;;;;;;8.82;100.00;100402.22;5037372;28;20047;-66
2022/11/08 06:38:06;;;;;;;16.05;4.00;;;;;;;8.79;100.00;100407.50;5039380;28;20104;-65
2022/11/08 06:40:32;;;;;;;17.35;4.20;;;;;;;8.83;100.00;100394.34;5037904;28;20025;-65
2022/11/08 06:42:58;;;;;;;17.38;4.13;;;;;;;8.82;100.00;100407.50;5043472;28;20031;-65
2022/11/08 06:45:24;;;;;;;16.00;3.70;;;;;;;8.78;100.00;100396.09;5041145;28;20112;-67
2022/11/08 06:47:57;;;;;;;14.43;3.72;;;;;;;8.85;100.00;100392.59;5041145;28;20053;-65
2022/11/08 06:50:22;;;;;;;16.85;4.00;;;;;;;8.88;100.00;100397.88;5037005;28;20573;-65
2022/11/08 06:52:54;;;;;;;14.75;3.78;;;;;;;8.86;100.00;100394.34;5036083;28;20112;-64
2022/11/08 06:55:19;;;;;;;15.70;3.85;;;;;;;8.84;100.00;100400.47;5035174;28;20472;-64
2022/11/08 06:57:45;;;;;;;17.50;4.25;;;;;;;8.86;100.00;100409.28;5034023;28;20039;-64
2022/11/08 07:00:11;;;;;;;16.35;3.97;;;;;;;8.84;100.00;100411.00;5037825;28;20032;-65
2022/11/08 07:02:36;;;;;;;15.70;4.10;;;;;;;8.89;100.00;100409.28;5035979;28;20028;-63
2022/11/08 07:05:01;;;;;;;15.20;3.80;;;;;;;8.90;100.00;100404.03;5037723;28;20013;-64
2022/11/08 07:07:27;;;;;;;15.85;3.90;;;;;;;8.95;100.00;100414.59;5040590;28;20025;-65
2022/11/08 07:09:53;;;;;;;15.57;3.80;;;;;;;8.95;100.00;100409.31;5043696;28;20080;-65
2022/11/08 07:12:19;;;;;;;15.25;3.90;;;;;;;9.00;100.00;100417.22;5046646;28;20452;-64
2022/11/08 07:14:44;;;;;;;16.75;4.07;;;;;;;9.03;100.00;100425.19;5049953;28;20552;-65
2022/11/08 07:17:09;;;;;;;15.60;4.07;;;;;;;9.00;100.00;100418.13;5047296;28;20413;-65
2022/11/08 07:19:35;;;;;;;13.98;3.90;;;;;;;9.04;100.00;100417.28;5046030;28;20488;-65
2022/11/08 07:22:00;;;;;;;15.60;3.70;;;;;;;9.05;100.00;100419.03;5046321;28;20025;-64
2022/11/08 07:24:25;;;;;;;15.35;3.70;;;;;;;9.05;100.00;100416.38;5046227;28;20083;-65
2022/11/08 07:26:51;;;;;;;15.57;3.83;;;;;;;9.05;100.00;100407.59;5042582;28;20026;-64
2022/11/08 07:29:16;;;;;;;15.30;3.80;;;;;;;9.08;100.00;100399.69;5045279;28;20037;-64
2022/11/08 07:31:41;;;;;;;15.98;4.00;;;;;;;9.17;100.00;100417.31;5046192;28;20083;-64
2022/11/08 07:34:07;;;;;;;14.95;3.90;;;;;;;9.18;100.00;100414.69;5047421;28;20385;-65
2022/11/08 07:36:32;;;;;;;14.60;3.90;;;;;;;9.21;100.00;100411.16;5045083;28;20025;-64
2022/11/08 07:38:57;;;;;;;13.73;3.70;;;;;;;9.24;100.00;100411.19;5049088;28;20025;-64
2022/11/08 07:41:23;;;;;;;16.73;3.80;;;;;;;9.25;100.00;100405.91;5046316;28;20056;-65
2022/11/08 07:43:48;;;;;;;15.43;3.90;;;;;;;9.30;100.00;100410.31;5046238;28;20020;-66
2022/11/08 07:46:13;;;;;;;12.63;3.50;;;;;;;9.39;100.00;100408.59;5038466;28;21508;-66
2022/11/08 07:48:38;;;;;;;13.07;3.70;;;;;;;9.49;100.00;100404.19;5038498;28;20042;-67
2022/11/08 07:51:04;;;;;;;14.65;3.70;;;;;;;9.58;100.00;100405.97;5035145;28;20083;-65
2022/11/08 07:53:29;;;;;;;14.40;3.70;;;;;;;9.64;100.00;100402.47;5044745;28;20473;-65
2022/11/08 07:55:57;;;;;;;13.68;3.60;;;;;;;9.71;100.00;100388.38;5034698;28;20625;-64
2022/11/08 07:58:22;;;;;;;16.13;3.60;;;;;;;9.79;100.00;100394.56;5033711;28;20025;-65
2022/11/08 08:00:48;;;;;;;14.63;3.47;;;;;;;9.89;100.00;100392.81;5036545;28;20105;-73
2022/11/08 08:03:14;;;;;;;12.80;3.30;;;;;;;10.00;100.00;100395.44;5034959;28;20036;-73
2022/11/08 08:05:42;;;;;;;13.82;3.50;;;;;;;10.09;100.00;100388.41;5035186;28;20030;-71
2022/11/08 08:08:08;;;;;;;11.77;3.25;;;;;;;10.24;100.00;100397.19;5036025;28;20026;-72
2022/11/08 08:10:34;;;;;;;13.98;3.28;;;;;;;10.40;100.00;100388.38;5036665;28;20038;-69
2022/11/08 08:13:00;;;;;;;10.93;2.90;;;;;;;10.60;100.00;100400.66;5043911;28;20033;-69
2022/11/08 08:15:26;;;;;;;11.73;3.10;;;;;;;10.76;100.00;100383.88;5046245;28;20025;-69
2022/11/08 08:17:51;;;;;;;11.38;3.00;;;;;;;10.92;100.00;100389.09;5046464;28;20029;-69
2022/11/08 08:20:16;;;;;;;11.38;2.97;;;;;;;11.06;100.00;100389.91;5041827;28;20048;-69
2022/11/08 08:22:50;;;;;;;14.50;3.13;;;;;;;11.26;100.00;100412.75;5046810;28;20032;-68
2022/11/08 08:25:16;;;;;;;12.77;2.90;;;;;;;11.31;100.00;100401.25;5047159;28;20025;-68
2022/11/08 08:27:50;;;;;;;10.65;2.90;;;;;;;11.42;100.00;100413.53;5047716;28;20025;-68
2022/11/08 08:30:16;;;;;;;10.40;2.78;;;;;;;11.53;100.00;100401.09;5051595;28;20033;-68
2022/11/08 08:32:42;;;;;;;8.38;2.80;;;;;;;11.56;100.00;100409.00;5048783;28;20484;-68
2022/11/08 08:35:08;;;;;;;10.32;2.83;;;;;;;11.59;100.00;100421.34;5047767;28;20040;-68
2022/11/08 08:37:33;;;;;;;8.23;2.80;;;;;;;11.64;100.00;100427.53;5047461;28;20029;-68
2022/11/08 08:39:58;;;;;;;11.48;2.80;;;;;;;11.70;100.00;100432.75;5043134;28;20036;-68
2022/11/08 08:42:24;;;;;;;7.35;2.70;;;;;;;11.80;100.00;100431.81;5044106;28;20071;-68
2022/11/08 08:44:49;;;;;;;12.07;2.80;;;;;;;11.93;100.00;100410.53;5044259;28;20021;-68
2022/11/08 08:47:14;;;;;;;9.50;2.90;;;;;;;11.99;100.00;100410.53;5045323;28;20028;-68
2022/11/08 08:49:40;;;;;;;10.38;2.88;;;;;;;12.09;100.00;100404.25;5042668;28;20022;-68
2022/11/08 08:52:05;;;;;;;12.40;2.90;;;;;;;12.10;100.00;100400.72;5046021;28;20028;-68
2022/11/08 08:54:30;;;;;;;10.32;2.80;;;;;;;12.18;100.00;100409.44;5043207;28;20021;-68
2022/11/08 08:56:56;;;;;;;9.82;2.80;;;;;;;12.21;100.00;100405.91;5044661;28;20112;-68
2022/11/08 08:59:21;;;;;;;10.30;2.85;;;;;;;12.27;100.00;100404.97;5043069;28;20398;-68
2022/11/08 09:01:46;;;;;;;12.48;3.17;;;;;;;12.28;100.00;100401.44;5043314;28;20030;-68
2022/11/08 09:04:11;;;;;;;9.10;2.78;;;;;;;12.35;100.00;100395.19;5045581;28;20023;-68
2022/11/08 09:06:37;;;;;;;11.85;2.90;;;;;;;12.36;100.00;100394.28;5042429;28;20511;-68
2022/11/08 09:09:02;;;;;;;12.13;3.00;;;;;;;12.43;100.00;100380.06;5045361;28;20435;-68
2022/11/08 09:11:27;;;;;;;10.82;2.90;;;;;;;12.53;100.00;100376.41;5043055;28;20040;-68
2022/11/08 09:13:53;;;;;;;11.57;2.90;;;;;;;12.58;100.00;100386.97;5044006;28;20036;-68
2022/11/08 09:16:18;;;;;;;11.05;3.00;;;;;;;12.60;100.00;100377.22;5044230;28;20087;-68
2022/11/08 09:18:44;;;;;;;11.93;3.17;;;;;;;12.66;100.00;100401.03;5042775;28;20030;-68
2022/11/08 09:21:09;;;;;;;11.38;2.95;;;;;;;12.70;100.00;100407.19;5045407;28;20029;-68
2022/11/08 09:23:34;;;;;;;10.93;2.85;;;;;;;12.72;100.00;100382.38;5037752;28;20432;-68
2022/11/08 09:26:03;;;;;;;10.85;3.00;;;;;;;12.70;100.00;100386.84;5045064;28;20082;-68
2022/11/08 09:28:30;;;;;;;12.52;2.80;;;;;;;12.67;100.00;100378.06;5042459;28;20143;-68
2022/11/08 09:30:59;;;;;;;11.40;3.00;;;;;;;12.72;100.00;100376.22;5043772;28;20387;-68
2022/11/08 09:33:24;;;;;;;11.38;3.03;;;;;;;12.72;100.00;100377.06;5043377;28;20029;-68
2022/11/08 09:35:52;;;;;;;11.23;2.90;;;;;;;12.74;100.00;100374.41;5042047;28;20013;-68
2022/11/08 09:38:18;;;;;;;12.25;3.20;;;;;;;12.80;100.00;100390.25;5041916;28;20526;-66
2022/11/08 09:41:06;;;;;;;14.02;3.20;;;;;;;12.94;100.00;100398.03;5041772;28;20021;-66
2022/11/08 09:43:42;;;;;;;11.80;3.30;;;;;;;12.99;100.00;100388.25;5046167;28;20070;-65
2022/11/08 09:46:17;;;;;;;11.23;3.10;;;;;;;13.16;100.00;100371.22;5043150;28;20071;-66
2022/11/08 09:48:43;;;;;;;10.30;2.90;;;;;;;13.27;100.00;100369.31;5042009;28;20265;-66
2022/11/08 09:51:13;;;;;;;11.85;3.10;;;;;;;13.36;100.00;100384.25;5047742;28;20032;-65
2022/11/08 09:53:57;;;;;;;9.73;3.00;;;;;;;13.40;100.00;100391.28;5046878;28;20056;-65
2022/11/08 09:56:33;;;;;;;10.63;3.10;;;;;;;13.45;100.00;100386.75;5045101;28;20041;-66
2022/11/08 09:59:08;;;;;;;9.85;2.80;;;;;;;13.56;100.00;100395.47;5044362;28;20115;-65
2022/11/08 10:01:35;;;;;;;12.52;3.10;;;;;;;13.84;100.00;100397.69;5045777;28;20108;-65
2022/11/08 10:04:05;;;;;;;11.40;2.95;;;;;;;14.03;100.00;100389.41;5043640;28;20017;-65
2022/11/08 10:06:47;;;;;;;10.43;3.00;;;;;;;14.21;100.00;100398.84;5045891;28;20120;-65
2022/11/08 10:09:50;;;;;;;12.82;2.88;;;;;;;14.44;100.00;100387.78;5047519;28;20108;-65
2022/11/08 10:12:24;;;;;;;13.30;3.28;;;;;;;14.39;100.00;100400.31;5044050;28;20063;-64
2022/11/08 10:15:10;;;;;;;8.23;2.70;;;;;;;14.53;100.00;100400.88;5046894;28;20033;-64
2022/11/08 10:17:56;;;;;;;10.60;2.95;;;;;;;14.63;100.00;100402.53;5044640;28;20025;-66
2022/11/08 10:20:55;;;;;;;12.73;3.05;;;;;;;14.62;100.00;100405.19;5041818;28;20488;-66
2022/11/08 10:23:44;;;;;;;10.55;2.92;;;;;;;14.62;100.00;100408.75;5034586;28;20028;-66
2022/11/08 10:26:09;;;;;;;11.10;3.00;;;;;;;14.55;100.00;100401.75;5032742;28;20453;-65
2022/11/08 10:28:46;;;;;;;9.63;2.80;;;;;;;14.44;100.00;100414.38;5035818;28;20064;-66
2022/11/08 10:31:12;;;;;;;9.52;2.90;;;;;;;14.36;100.00;100416.28;5036715;28;20133;-65
2022/11/08 10:33:43;;;;;;;9.20;2.90;;;;;;;14.30;100.00;100418.16;5034436;28;20079;-65
2022/11/08 10:36:17;;;;;;;9.30;2.70;;;;;;;14.22;100.00;100419.19;5039214;28;20393;-66
2022/11/08 10:39:02;;;;;;;9.27;2.95;;;;;;;14.17;100.00;100421.94;5038864;28;20083;-65
2022/11/08 10:41:37;;;;;;;12.43;3.00;;;;;;;14.12;100.00;100430.00;5036763;28;20036;-65
2022/11/08 10:44:15;;;;;;;10.00;2.80;;;;;;;14.09;100.00;100429.16;5043864;28;20487;-65
2022/11/08 10:46:56;;;;;;;12.07;3.05;;;;;;;14.03;100.00;100427.47;5043745;28;20116;-66
2022/11/08 10:49:24;;;;;;;8.55;2.80;;;;;;;14.06;100.00;100418.59;5041505;28;20026;-66
2022/11/08 10:51:58;;;;;;;10.95;3.05;;;;;;;14.17;100.00;100413.97;5048094;28;20144;-66
2022/11/08 10:54:44;;;;;;;12.15;3.05;;;;;;;14.33;100.00;100425.22;5041835;28;20033;-67
2022/11/08 10:57:29;;;;;;;10.43;3.03;;;;;;;14.36;100.00;100414.53;5047794;28;20020;-68
2022/11/08 10:59:56;;;;;;;10.95;3.13;;;;;;;14.55;100.00;100408.88;5040789;28;20061;-68
2022/11/08 11:02:24;;;;;;;11.65;3.10;;;;;;;14.47;100.00;100420.53;5046105;28;20035;-68
2022/11/08 11:04:51;;;;;;;11.95;3.03;;;;;;;14.39;100.00;100410.94;5045055;28;20021;-67
2022/11/08 11:07:25;;;;;;;11.60;3.00;;;;;;;14.36;100.00;100400.31;5044429;28;20090;-68
2022/11/08 11:09:50;;;;;;;10.90;2.80;;;;;;;14.37;100.00;100408.31;5041276;28;20075;-67
2022/11/08 11:12:16;;;;;;;11.10;2.95;;;;;;;14.30;100.00;100383.59;5047796;28;20041;-67
2022/11/08 11:14:41;;;;;;;8.15;2.85;;;;;;;14.22;100.00;100376.66;5045063;28;20025;-68
2022/11/08 11:17:17;;;;;;;12.52;3.17;;;;;;;14.22;100.00;100377.53;5046806;28;20025;-68
2022/11/08 11:19:52;;;;;;;14.15;3.30;;;;;;;14.34;100.00;100372.91;5044975;28;20033;-68
2022/11/08 11:22:28;;;;;;;10.50;2.85;;;;;;;14.32;100.00;100390.69;5040780;28;20115;-69
2022/11/08 11:24:54;;;;;;;15.73;3.30;;;;;;;14.30;100.00;100375.63;5043448;28;20538;-69
2022/11/08 11:27:30;;;;;;;13.65;3.17;;;;;;;14.37;100.00;100392.34;5045907;28;20059;-68
2022/11/08 11:30:21;;;;;;;11.63;2.97;;;;;;;14.50;100.00;100342.44;5046531;28;20064;-68
2022/11/08 11:33:01;;;;;;;10.25;2.92;;;;;;;14.50;100.00;100347.75;5042826;28;20411;-68
2022/11/08 11:35:40;;;;;;;12.00;3.00;;;;;;;14.69;100.00;100336.78;5045132;28;20021;-68
2022/11/08 11:38:17;;;;;;;11.00;2.83;;;;;;;14.96;100.00;100360.16;5040289;28;20063;-68
2022/11/08 11:40:45;;;;;;;12.13;2.90;;;;;;;15.25;100.00;100377.28;5041496;28;20025;-68